Time;durP1;ratioP1;P1;durP2;ratioP2;P2;SDS_P1;SDS_P2;PMS_P1;PMS_P2;Temp;Humidity;BMP_temperature;BMP_pressure;BME280_temperature;BME280_humidity;BME280_pressure;Samples;Min_cycle;Max_cycle;Signal;HPM_P1;HPM_P2
2021/12/24 00:02:09;;;;;;;4.65;4.20;;;7.40;99.90;;;;;;5072252;28;20016;-60
2021/12/24 00:04:35;;;;;;;4.28;3.63;;;7.30;99.90;;;;;;5072133;28;20369;-60
2021/12/24 00:07:01;;;;;;;5.72;3.35;;;7.30;99.90;;;;;;5072349;28;20027;-61
2021/12/24 00:09:31;;;;;;;6.85;3.60;;;7.40;99.90;;;;;;5071987;28;20025;-60
2021/12/24 00:12:00;;;;;;;6.43;3.50;;;7.50;99.90;;;;;;5072341;28;20075;-60
2021/12/24 00:14:28;;;;;;;4.90;2.97;;;7.40;99.90;;;;;;5071970;28;20021;-61
2021/12/24 00:16:57;;;;;;;7.25;3.20;;;7.50;99.90;;;;;;5071924;28;20441;-60
2021/12/24 00:35:35;;;;;;;4.53;3.35;;;7.50;99.90;;;;;;5071651;28;20348;-61
2021/12/24 00:38:03;;;;;;;3.15;2.92;;;7.50;99.90;;;;;;5071683;28;20031;-61
2021/12/24 00:40:33;;;;;;;5.43;3.13;;;7.40;99.90;;;;;;5071203;28;20020;-61
2021/12/24 00:42:59;;;;;;;3.53;3.22;;;7.40;99.90;;;;;;5071411;28;20574;-61
2021/12/24 00:45:28;;;;;;;4.35;3.50;;;7.40;99.90;;;;;;5069959;28;20534;-61
2021/12/24 00:47:58;;;;;;;3.88;2.90;;;7.40;99.90;;;;;;5071140;28;20157;-60
2021/12/24 00:50:30;;;;;;;3.50;3.13;;;7.40;99.90;;;;;;5070799;28;20032;-61
2021/12/24 00:55:02;;;;;;;4.53;3.00;;;7.30;99.90;;;;;;5071265;28;20104;-61
2021/12/24 00:55:49;;;;;;;5.13;3.17;;;7.20;99.90;;;;;;5071201;28;20448;-61
2021/12/24 00:58:15;;;;;;;3.35;3.05;;;7.20;99.90;;;;;;5071027;28;20103;-61
2021/12/24 01:00:41;;;;;;;6.25;3.33;;;7.20;99.90;;;;;;5070939;28;20020;-61
2021/12/24 01:03:09;;;;;;;3.40;3.10;;;7.30;99.90;;;;;;5071142;28;20573;-61
2021/12/24 01:05:37;;;;;;;4.55;3.10;;;7.30;99.90;;;;;;5071059;28;20448;-61
2021/12/24 01:08:05;;;;;;;5.97;3.65;;;7.40;99.90;;;;;;5071035;28;20112;-60
2021/12/24 01:10:35;;;;;;;6.53;3.50;;;7.60;99.90;;;;;;5070977;28;20107;-61
2021/12/24 01:13:02;;;;;;;5.40;4.32;;;7.60;99.90;;;;;;5070991;28;20020;-61
2021/12/24 01:15:29;;;;;;;8.05;3.05;;;7.60;99.90;;;;;;5069253;28;20048;-61
2021/12/24 01:18:13;;;;;;;5.15;3.08;;;7.60;99.90;;;;;;5083351;28;20058;-61
2021/12/24 01:20:47;;;;;;;7.05;4.43;;;7.70;99.90;;;;;;5091049;28;20016;-61
2021/12/24 01:44:28;;;;;;;16.02;8.88;;;8.10;99.90;;;;;;5090532;28;20123;-60
2021/12/24 01:46:59;;;;;;;30.42;12.38;;;8.20;99.90;;;;;;5090421;28;20034;-61
2021/12/24 01:49:25;;;;;;;13.05;3.55;;;8.10;99.90;;;;;;5089973;28;20504;-60
2021/12/24 01:51:52;;;;;;;81.05;31.08;;;8.10;99.90;;;;;;5090486;28;20364;-61
2021/12/24 01:54:19;;;;;;;13.70;4.88;;;8.10;99.90;;;;;;5090212;28;20036;-61
2021/12/24 01:56:45;;;;;;;18.80;6.95;;;8.00;99.90;;;;;;5090474;28;20573;-61
2021/12/24 01:59:12;;;;;;;24.40;11.48;;;8.00;99.90;;;;;;5090468;28;20055;-60
2021/12/24 02:01:38;;;;;;;17.75;7.07;;;8.10;99.90;;;;;;5089548;28;20024;-61
2021/12/24 02:04:04;;;;;;;25.45;8.68;;;8.20;99.90;;;;;;5090427;28;20114;-61
2021/12/24 02:06:30;;;;;;;14.73;5.50;;;8.20;99.90;;;;;;5089934;28;20016;-60
2021/12/24 02:08:56;;;;;;;15.13;6.57;;;8.30;99.90;;;;;;5090104;28;20529;-61
2021/12/24 02:11:24;;;;;;;9.88;4.22;;;8.40;99.90;;;;;;5090130;28;20024;-61
2021/12/24 02:13:49;;;;;;;9.77;3.53;;;8.30;99.90;;;;;;5090375;28;20123;-61
2021/12/24 02:16:37;;;;;;;4.60;2.90;;;8.30;99.90;;;;;;5090094;28;20314;-61
2021/12/24 02:30:10;;;;;;;3.90;2.88;;;8.30;99.90;;;;;;5090157;28;20039;-61
2021/12/24 02:32:40;;;;;;;24.15;8.18;;;8.40;99.90;;;;;;5090451;28;20106;-61
2021/12/24 02:35:06;;;;;;;39.15;14.50;;;8.40;99.90;;;;;;5090295;28;20078;-61
2021/12/24 02:37:32;;;;;;;39.25;13.55;;;8.70;99.90;;;;;;5083845;28;20495;-61
2021/12/24 02:39:57;;;;;;;38.72;11.82;;;8.70;99.90;;;;;;5071308;28;20111;-61
2021/12/24 02:42:23;;;;;;;39.90;13.45;;;8.80;99.90;;;;;;5069876;28;20028;-60
2021/12/24 02:44:51;;;;;;;31.90;8.70;;;8.70;99.90;;;;;;5069784;28;20017;-61
2021/12/24 02:55:08;;;;;;;44.70;14.45;;;8.80;99.90;;;;;;5069944;28;20074;-61
2021/12/24 02:57:37;;;;;;;23.05;8.43;;;8.80;99.90;;;;;;5069746;28;20041;-61
2021/12/24 03:00:15;;;;;;;35.33;11.65;;;8.80;99.90;;;;;;5069895;28;20028;-60
2021/12/24 03:02:44;;;;;;;57.88;16.60;;;9.00;99.90;;;;;;5069830;28;20022;-61
2021/12/24 03:05:11;;;;;;;16.70;6.82;;;8.90;99.90;;;;;;5085360;28;20548;-61
2021/12/24 03:07:37;;;;;;;67.38;23.42;;;9.10;99.90;;;;;;5089992;28;20024;-61
2021/12/24 03:10:06;;;;;;;7.28;3.25;;;9.10;99.90;;;;;;5089863;28;20028;-61
2021/12/24 03:12:32;;;;;;;66.38;22.27;;;9.20;99.90;;;;;;5089861;28;20063;-61
2021/12/24 03:14:57;;;;;;;20.27;6.28;;;9.40;99.90;;;;;;5073303;28;20052;-60
2021/12/24 03:17:25;;;;;;;7.85;3.67;;;9.30;99.90;;;;;;5081245;28;20048;-61
2021/12/24 03:19:53;;;;;;;28.58;9.70;;;9.30;99.90;;;;;;5093586;28;20034;-61
2021/12/24 03:24:57;;;;;;;8.23;4.03;;;9.40;99.90;;;;;;5093101;28;20070;-61
2021/12/24 03:27:22;;;;;;;43.42;14.48;;;9.30;99.90;;;;;;5092897;28;20020;-61
2021/12/24 03:29:49;;;;;;;9.07;4.70;;;9.30;99.90;;;;;;5093185;28;20028;-61
2021/12/24 03:32:15;;;;;;;40.13;15.48;;;9.20;99.90;;;;;;5092479;28;20031;-61
2021/12/24 03:34:41;;;;;;;8.88;3.65;;;9.30;99.90;;;;;;5093165;28;20264;-61
2021/12/24 03:37:07;;;;;;;15.52;5.78;;;9.30;99.90;;;;;;5093067;28;20416;-61
2021/12/24 03:39:33;;;;;;;41.67;15.30;;;9.20;99.90;;;;;;5092700;28;20124;-61
2021/12/24 03:41:59;;;;;;;2.88;2.60;;;9.20;99.90;;;;;;5092804;28;20103;-61
2021/12/24 03:44:32;;;;;;;16.35;7.47;;;9.20;99.90;;;;;;5092713;28;20111;-61
2021/12/24 03:47:17;;;;;;;5.20;3.88;;;9.40;99.90;;;;;;5093026;28;20478;-61
2021/12/24 03:50:06;;;;;;;10.68;5.72;;;9.30;99.90;;;;;;5074635;28;20560;-61
2021/12/24 03:53:00;;;;;;;3.55;3.25;;;9.30;99.90;;;;;;5092155;28;20364;-61
2021/12/24 03:55:19;;;;;;;2.75;2.10;;;9.20;99.90;;;;;;5091622;28;20140;-60
2021/12/24 03:57:45;;;;;;;3.42;2.67;;;9.30;99.90;;;;;;5092625;28;20099;-61
2021/12/24 04:00:16;;;;;;;4.80;2.95;;;9.30;99.90;;;;;;5092406;28;20062;-61
2021/12/24 04:02:42;;;;;;;2.97;2.20;;;9.20;99.90;;;;;;5092643;28;20028;-61
2021/12/24 04:05:09;;;;;;;4.53;2.60;;;9.20;99.90;;;;;;5092451;28;20044;-61
2021/12/24 04:07:35;;;;;;;3.03;2.70;;;9.40;99.90;;;;;;5092517;28;20030;-61
2021/12/24 04:10:18;;;;;;;6.03;2.00;;;9.40;99.90;;;;;;5074340;28;20111;-61
2021/12/24 04:12:43;;;;;;;2.47;2.28;;;9.40;99.90;;;;;;5092446;28;20048;-61
2021/12/24 04:15:09;;;;;;;2.58;2.38;;;9.40;99.90;;;;;;5092053;28;20078;-61
2021/12/24 04:17:38;;;;;;;3.05;2.75;;;9.40;99.90;;;;;;5092024;28;20038;-61
2021/12/24 04:25:28;;;;;;;5.00;3.15;;;9.30;99.90;;;;;;5091039;28;20434;-61
2021/12/24 04:27:58;;;;;;;4.18;2.40;;;9.30;99.90;;;;;;5091902;28;20035;-61
2021/12/24 04:30:29;;;;;;;20.63;8.73;;;9.20;99.90;;;;;;5092014;28;20016;-61
2021/12/24 04:33:07;;;;;;;15.68;6.82;;;9.10;99.90;;;;;;5092098;28;20499;-60
2021/12/24 04:35:41;;;;;;;5.30;3.70;;;9.20;99.90;;;;;;5091561;28;20395;-61
2021/12/24 04:51:33;;;;;;;2.22;2.03;;;9.30;99.90;;;;;;5084269;28;20490;-60
2021/12/24 05:04:48;;;;;;;3.08;2.33;;;9.10;99.90;;;;;;5080467;28;20024;-60
2021/12/24 05:09:54;;;;;;;2.53;2.30;;;9.00;99.90;;;;;;5071169;28;20017;-60
2021/12/24 05:12:20;;;;;;;8.25;2.28;;;9.00;99.90;;;;;;5078871;28;20463;-60
2021/12/24 05:14:45;;;;;;;2.35;2.15;;;9.10;99.90;;;;;;5088622;28;20471;-60
2021/12/24 05:17:25;;;;;;;3.90;2.35;;;9.10;99.90;;;;;;5072783;28;20024;-60
2021/12/24 05:22:35;;;;;;;6.50;2.80;;;9.00;99.90;;;;;;5091022;28;20585;-60
2021/12/24 05:25:01;;;;;;;5.68;2.50;;;8.90;99.90;;;;;;5091336;28;20029;-60
2021/12/24 05:27:28;;;;;;;2.90;2.55;;;8.90;99.90;;;;;;5072477;28;20514;-60
2021/12/24 05:29:54;;;;;;;7.05;2.58;;;8.80;99.90;;;;;;5090864;28;20016;-60
2021/12/24 05:32:20;;;;;;;5.18;4.40;;;8.70;99.90;;;;;;5090759;28;20024;-60
2021/12/24 05:34:46;;;;;;;5.32;4.82;;;8.60;99.90;;;;;;5090654;28;20024;-60
2021/12/24 05:37:12;;;;;;;8.25;2.83;;;8.40;99.90;;;;;;5090615;28;20032;-60
2021/12/24 05:39:38;;;;;;;2.90;2.50;;;8.40;99.90;;;;;;5090568;28;20024;-61
2021/12/24 05:42:04;;;;;;;3.30;3.00;;;8.40;99.90;;;;;;5090667;28;20016;-60
2021/12/24 05:44:32;;;;;;;3.97;2.75;;;8.30;99.90;;;;;;5090683;28;20467;-60
2021/12/24 05:46:59;;;;;;;4.78;2.38;;;8.40;99.90;;;;;;5090685;28;20020;-59
2021/12/24 05:49:24;;;;;;;8.73;2.33;;;8.40;99.90;;;;;;5089992;28;20026;-60
2021/12/24 05:51:50;;;;;;;3.05;2.40;;;8.40;99.90;;;;;;5090215;28;20028;-60
2021/12/24 05:54:16;;;;;;;8.18;2.58;;;8.40;99.90;;;;;;5089778;28;20044;-60
2021/12/24 05:56:42;;;;;;;3.55;2.60;;;8.30;99.90;;;;;;5072356;28;20028;-60
2021/12/24 05:59:08;;;;;;;3.28;2.60;;;8.30;99.90;;;;;;5090404;28;20103;-60
2021/12/24 06:01:34;;;;;;;4.03;3.28;;;8.30;99.90;;;;;;5090050;28;20032;-60
2021/12/24 06:04:00;;;;;;;2.75;2.55;;;8.20;99.90;;;;;;5090271;28;20525;-60
2021/12/24 06:06:25;;;;;;;2.63;2.42;;;8.20;99.90;;;;;;5089906;28;20333;-60
2021/12/24 06:08:51;;;;;;;5.70;2.30;;;8.20;99.90;;;;;;5090402;28;20483;-60
2021/12/24 06:11:17;;;;;;;2.90;2.30;;;8.10;99.90;;;;;;5089937;28;20437;-60
2021/12/24 06:13:43;;;;;;;2.95;2.53;;;8.20;99.90;;;;;;5090314;28;20016;-60
2021/12/24 06:16:10;;;;;;;4.13;2.63;;;8.30;99.90;;;;;;5090078;28;20020;-60
2021/12/24 06:18:39;;;;;;;4.40;3.03;;;8.40;99.90;;;;;;5090417;28;20016;-60
2021/12/24 06:21:05;;;;;;;2.47;2.28;;;8.60;99.90;;;;;;5090455;28;20016;-60
2021/12/24 06:23:32;;;;;;;25.52;11.85;;;8.70;99.90;;;;;;5090208;28;20407;-59
2021/12/24 06:25:59;;;;;;;16.17;8.30;;;8.80;99.90;;;;;;5090168;28;20016;-60
2021/12/24 06:28:26;;;;;;;26.67;12.45;;;8.90;99.90;;;;;;5090024;28;20020;-60
2021/12/24 06:30:52;;;;;;;40.92;15.77;;;8.80;99.90;;;;;;5090273;28;20098;-59
2021/12/24 06:33:18;;;;;;;3.40;2.47;;;8.90;99.90;;;;;;5090088;28;20328;-60
2021/12/24 06:35:44;;;;;;;16.20;6.30;;;9.00;99.90;;;;;;5090044;28;20026;-60
2021/12/24 06:38:10;;;;;;;89.40;25.35;;;9.00;99.90;;;;;;5090116;28;20046;-60
2021/12/24 06:40:36;;;;;;;201.82;58.70;;;9.20;99.90;;;;;;5090236;28;20101;-60
2021/12/24 06:43:03;;;;;;;13.50;7.95;;;9.20;99.90;;;;;;5090100;28;20482;-60
2021/12/24 06:45:30;;;;;;;4.03;2.60;;;9.30;99.90;;;;;;5089922;28;20050;-60
2021/12/24 06:47:58;;;;;;;4.25;2.85;;;9.30;99.90;;;;;;5091684;28;20024;-60
2021/12/24 06:50:24;;;;;;;3.03;2.25;;;9.40;99.90;;;;;;5093674;28;20024;-60
2021/12/24 06:52:51;;;;;;;4.03;2.38;;;9.40;99.90;;;;;;5093865;28;20133;-60
2021/12/24 06:55:17;;;;;;;4.90;2.38;;;9.30;99.90;;;;;;5087389;28;20522;-60
2021/12/24 06:57:44;;;;;;;2.30;2.10;;;9.60;99.90;;;;;;5077979;28;20024;-60
2021/12/24 07:00:17;;;;;;;9.52;2.60;;;9.50;99.90;;;;;;5073232;28;20070;-60
2021/12/24 07:02:43;;;;;;;4.38;2.30;;;9.60;99.90;;;;;;5073351;28;20074;-60
2021/12/24 07:05:09;;;;;;;3.63;2.20;;;9.60;99.90;;;;;;5089960;28;20039;-60
2021/12/24 07:07:34;;;;;;;2.63;1.90;;;9.60;99.90;;;;;;5093575;28;20433;-60
2021/12/24 07:10:00;;;;;;;7.45;2.20;;;9.50;99.90;;;;;;5093625;28;20103;-60
2021/12/24 07:12:26;;;;;;;2.80;2.55;;;9.50;99.90;;;;;;5092839;28;20451;-60
2021/12/24 07:14:52;;;;;;;7.43;2.20;;;9.60;99.90;;;;;;5093443;28;20379;-60
2021/12/24 07:17:17;;;;;;;3.65;2.20;;;9.60;99.90;;;;;;5092925;28;20032;-60
2021/12/24 07:19:43;;;;;;;3.08;2.20;;;9.50;99.90;;;;;;5074533;28;20039;-60
2021/12/24 07:22:09;;;;;;;7.22;2.50;;;9.50;99.90;;;;;;5093130;28;20472;-60
2021/12/24 07:24:36;;;;;;;2.72;2.28;;;9.50;99.90;;;;;;5092849;28;20024;-60
2021/12/24 07:27:03;;;;;;;2.55;2.17;;;9.50;99.90;;;;;;5093116;28;20031;-60
2021/12/24 07:29:29;;;;;;;5.85;2.35;;;9.40;99.90;;;;;;5092900;28;20024;-60
2021/12/24 07:31:55;;;;;;;2.38;2.17;;;9.40;99.90;;;;;;5092735;28;20023;-60
2021/12/24 07:34:20;;;;;;;2.70;2.50;;;9.40;99.90;;;;;;5092967;28;20035;-60
2021/12/24 07:36:47;;;;;;;2.40;2.20;;;9.40;99.90;;;;;;5092928;28;20387;-60
2021/12/24 07:39:12;;;;;;;4.63;2.50;;;9.30;99.90;;;;;;5092758;28;20024;-60
2021/12/24 07:41:38;;;;;;;11.63;3.20;;;9.30;99.90;;;;;;5092814;28;20026;-60
2021/12/24 07:44:04;;;;;;;4.07;3.50;;;9.30;99.90;;;;;;5092859;28;20064;-60
2021/12/24 07:46:36;;;;;;;2.75;2.45;;;9.30;99.90;;;;;;5092680;28;20020;-60
2021/12/24 07:49:17;;;;;;;2.72;2.42;;;9.30;99.90;;;;;;5075402;28;20514;-60
2021/12/24 07:51:56;;;;;;;3.50;3.00;;;9.30;99.90;;;;;;5081736;28;20020;-60
2021/12/24 07:54:22;;;;;;;6.65;2.45;;;9.20;99.90;;;;;;5092329;28;20055;-60
2021/12/24 07:56:48;;;;;;;2.80;2.47;;;9.10;99.90;;;;;;5092659;28;20020;-60
2021/12/24 07:59:15;;;;;;;2.50;2.30;;;9.10;99.90;;;;;;5091783;28;20028;-60
2021/12/24 08:01:44;;;;;;;4.50;2.75;;;9.00;99.90;;;;;;5081999;28;20024;-60
2021/12/24 08:04:11;;;;;;;5.18;2.50;;;8.80;99.90;;;;;;5080254;28;20020;-61
2021/12/24 08:06:36;;;;;;;2.17;2.08;;;8.70;99.90;;;;;;5089630;28;20016;-60
2021/12/24 08:09:03;;;;;;;5.55;2.63;;;8.80;99.90;;;;;;5092460;28;20069;-60
2021/12/24 08:11:28;;;;;;;3.58;2.97;;;8.80;99.90;;;;;;5092227;28;20035;-60
2021/12/24 08:13:54;;;;;;;4.10;3.00;;;8.70;99.90;;;;;;5081868;28;20020;-62
2021/12/24 08:16:21;;;;;;;2.45;2.25;;;8.70;99.90;;;;;;5077082;28;20028;-61
2021/12/24 08:18:46;;;;;;;4.75;3.00;;;8.70;99.90;;;;;;5074778;28;20378;-60
2021/12/24 08:21:12;;;;;;;5.32;2.90;;;8.70;99.90;;;;;;5080639;28;20020;-61
2021/12/24 08:23:38;;;;;;;4.30;3.08;;;8.60;99.90;;;;;;5085397;28;20031;-60
2021/12/24 08:26:04;;;;;;;5.57;3.08;;;8.70;99.90;;;;;;5082997;28;20028;-61
2021/12/24 08:28:30;;;;;;;3.47;2.95;;;8.60;99.90;;;;;;5074132;28;20119;-60
2021/12/24 08:30:56;;;;;;;5.70;3.00;;;8.60;99.90;;;;;;5092843;28;20157;-61
2021/12/24 08:33:22;;;;;;;4.18;2.85;;;8.60;99.90;;;;;;5091772;28;20435;-60
2021/12/24 08:35:48;;;;;;;5.65;4.03;;;8.60;99.90;;;;;;5072145;28;20017;-61
2021/12/24 08:38:14;;;;;;;3.65;2.58;;;8.50;99.90;;;;;;5082350;28;20057;-61
2021/12/24 08:40:40;;;;;;;5.93;3.47;;;8.60;99.90;;;;;;5089745;28;20032;-62
2021/12/24 08:43:05;;;;;;;3.72;3.05;;;8.50;99.90;;;;;;5074711;28;20028;-61
2021/12/24 08:45:31;;;;;;;4.80;2.92;;;8.50;99.90;;;;;;5092226;28;20077;-62
2021/12/24 08:47:57;;;;;;;4.93;3.13;;;8.50;99.90;;;;;;5092587;28;20028;-60
2021/12/24 08:50:22;;;;;;;3.47;2.80;;;8.50;99.90;;;;;;5092286;28;20028;-61
2021/12/24 08:52:48;;;;;;;4.32;2.72;;;8.40;99.90;;;;;;5092183;28;20073;-61
2021/12/24 08:55:15;;;;;;;3.47;2.80;;;8.40;99.90;;;;;;5092009;28;20111;-62
2021/12/24 08:57:42;;;;;;;3.10;2.80;;;8.40;99.90;;;;;;5091073;28;20070;-61
2021/12/24 09:00:11;;;;;;;4.32;2.72;;;8.30;99.90;;;;;;5092359;28;20028;-61
2021/12/24 09:02:38;;;;;;;4.75;3.28;;;8.40;99.90;;;;;;5092197;28;20081;-61
2021/12/24 09:05:09;;;;;;;3.60;2.88;;;8.40;99.90;;;;;;5091898;28;20608;-61
2021/12/24 09:07:35;;;;;;;9.48;2.78;;;8.40;99.90;;;;;;5092111;28;20111;-60
2021/12/24 09:10:01;;;;;;;3.72;2.95;;;8.40;99.90;;;;;;5072653;28;20028;-61
2021/12/24 09:12:26;;;;;;;6.90;3.83;;;8.40;99.90;;;;;;5091544;28;20081;-61
2021/12/24 09:14:53;;;;;;;3.58;2.63;;;8.40;99.90;;;;;;5092161;28;20028;-61
2021/12/24 09:17:21;;;;;;;3.50;2.67;;;8.40;99.90;;;;;;5091410;28;20064;-61
2021/12/24 09:19:50;;;;;;;3.13;2.80;;;8.50;99.90;;;;;;5091871;28;20031;-61
2021/12/24 09:22:18;;;;;;;6.00;3.33;;;8.50;99.90;;;;;;5091957;28;20024;-61
2021/12/24 09:24:45;;;;;;;5.50;2.67;;;8.50;99.90;;;;;;5092083;28;20375;-61
2021/12/24 09:27:11;;;;;;;6.18;3.70;;;8.50;99.90;;;;;;5091863;28;20551;-61
2021/12/24 09:29:37;;;;;;;14.90;6.18;;;8.60;99.90;;;;;;5091379;28;20102;-61
2021/12/24 09:32:04;;;;;;;5.18;2.85;;;8.60;99.90;;;;;;5084691;28;20096;-61
2021/12/24 09:34:29;;;;;;;6.85;2.30;;;8.60;99.90;;;;;;5070319;28;20416;-61
2021/12/24 09:36:55;;;;;;;6.50;3.15;;;8.70;99.90;;;;;;5071414;28;20059;-61
2021/12/24 09:39:21;;;;;;;41.88;14.13;;;8.60;99.90;;;;;;5071007;28;20029;-61
2021/12/24 09:41:47;;;;;;;21.77;8.90;;;8.60;99.90;;;;;;5071287;28;20029;-61
2021/12/24 09:44:13;;;;;;;18.52;7.93;;;8.50;99.90;;;;;;5071083;28;20058;-61
2021/12/24 09:46:42;;;;;;;3.50;2.80;;;8.50;99.90;;;;;;5086467;28;20593;-61
2021/12/24 09:49:09;;;;;;;3.75;2.63;;;8.50;99.90;;;;;;5090716;28;20077;-61
2021/12/24 09:51:40;;;;;;;58.83;30.17;;;8.50;99.90;;;;;;5091305;28;20413;-61
2021/12/24 09:54:15;;;;;;;12.48;7.38;;;8.60;99.90;;;;;;5090831;28;20387;-61
2021/12/24 09:56:42;;;;;;;23.15;18.08;;;8.50;99.90;;;;;;5072939;28;20509;-61
2021/12/24 09:59:11;;;;;;;17.08;10.77;;;8.50;99.90;;;;;;5090466;28;20035;-61
2021/12/24 10:01:43;;;;;;;9.00;7.88;;;8.60;99.90;;;;;;5090957;28;20019;-61
2021/12/24 10:04:15;;;;;;;6.85;2.90;;;8.50;99.90;;;;;;5090670;28;20013;-61
2021/12/24 10:07:00;;;;;;;4.43;2.90;;;8.60;99.90;;;;;;5091265;28;20638;-61
2021/12/24 10:09:46;;;;;;;5.28;2.42;;;8.50;99.90;;;;;;5091143;28;20012;-61
2021/12/24 10:12:15;;;;;;;4.28;3.13;;;8.50;99.90;;;;;;5091443;28;20020;-61
2021/12/24 10:14:47;;;;;;;2.97;2.63;;;8.50;99.90;;;;;;5091056;28;20019;-61
2021/12/24 10:17:24;;;;;;;2.80;2.40;;;8.60;99.90;;;;;;5071474;28;20086;-61
2021/12/24 10:19:53;;;;;;;2.60;2.40;;;8.60;99.90;;;;;;5083400;28;20631;-61
2021/12/24 10:22:20;;;;;;;2.28;2.08;;;8.50;99.90;;;;;;5076136;28;20032;-61
2021/12/24 10:25:13;;;;;;;2.58;2.35;;;8.60;99.90;;;;;;5075003;28;20419;-61
2021/12/24 10:27:40;;;;;;;2.80;2.17;;;8.50;99.90;;;;;;5075225;28;20074;-61
2021/12/24 10:30:23;;;;;;;3.13;2.20;;;8.50;99.90;;;;;;5074940;28;20024;-61
2021/12/24 10:32:51;;;;;;;6.07;2.90;;;8.50;99.90;;;;;;5077756;28;20414;-61
2021/12/24 10:35:21;;;;;;;6.78;2.97;;;8.40;99.90;;;;;;5086925;28;20032;-61
2021/12/24 10:37:46;;;;;;;5.25;2.90;;;8.40;99.90;;;;;;5094756;28;20048;-60
2021/12/24 10:40:13;;;;;;;12.60;9.27;;;8.40;99.90;;;;;;5094944;28;20078;-62
2021/12/24 10:42:42;;;;;;;6.40;2.60;;;8.30;99.90;;;;;;5094764;28;20621;-61
2021/12/24 10:45:22;;;;;;;3.55;3.25;;;8.30;99.90;;;;;;5070031;28;20026;-61
2021/12/24 10:47:47;;;;;;;9.57;6.55;;;8.40;99.90;;;;;;5074136;28;20414;-61
2021/12/24 10:50:37;;;;;;;3.20;2.90;;;8.20;99.90;;;;;;5086826;28;20034;-61
2021/12/24 10:55:49;;;;;;;5.78;4.55;;;8.30;99.90;;;;;;5094178;28;20056;-60
2021/12/24 10:58:21;;;;;;;2.50;2.30;;;8.30;99.90;;;;;;5094285;28;20035;-61
2021/12/24 11:01:00;;;;;;;4.60;3.70;;;8.30;99.90;;;;;;5094028;28;20024;-61
2021/12/24 11:03:29;;;;;;;6.88;4.22;;;8.10;99.90;;;;;;5094636;28;20039;-61
2021/12/24 11:06:12;;;;;;;4.03;2.70;;;8.00;99.90;;;;;;5094175;28;20032;-61
2021/12/24 11:08:38;;;;;;;4.30;3.87;;;8.00;99.90;;;;;;5076442;28;20020;-61
2021/12/24 11:11:07;;;;;;;4.85;3.30;;;7.80;99.90;;;;;;5094591;28;20254;-60
2021/12/24 11:13:43;;;;;;;4.85;3.65;;;7.80;99.90;;;;;;5093646;28;20012;-61
2021/12/24 11:16:14;;;;;;;3.40;2.70;;;7.70;99.90;;;;;;5094166;28;20027;-61
2021/12/24 11:18:45;;;;;;;3.38;2.97;;;7.70;99.90;;;;;;5088961;28;20347;-61
2021/12/24 11:21:18;;;;;;;4.28;3.10;;;7.70;99.90;;;;;;5085773;28;20107;-61
2021/12/24 11:23:43;;;;;;;6.10;3.00;;;7.70;99.90;;;;;;5094495;28;20032;-61
2021/12/24 11:26:12;;;;;;;3.15;2.85;;;7.70;99.90;;;;;;5076080;28;20031;-61
2021/12/24 11:28:39;;;;;;;5.68;3.40;;;7.80;99.90;;;;;;5094522;28;20035;-61
2021/12/24 11:31:08;;;;;;;10.18;3.70;;;7.80;99.90;;;;;;5079682;28;20032;-61
2021/12/24 11:33:36;;;;;;;4.15;3.17;;;7.70;99.90;;;;;;5073638;28;20752;-61
2021/12/24 11:36:04;;;;;;;2.53;2.30;;;7.70;99.90;;;;;;5073981;28;20388;-61
2021/12/24 11:38:33;;;;;;;6.57;3.33;;;7.70;99.90;;;;;;5073872;28;20036;-61
2021/12/24 11:41:01;;;;;;;4.20;3.20;;;7.70;99.90;;;;;;5073779;28;20066;-61
2021/12/24 11:43:33;;;;;;;2.95;2.72;;;7.60;99.90;;;;;;5073648;28;20063;-61
2021/12/24 11:46:05;;;;;;;3.38;2.67;;;7.60;99.90;;;;;;5088672;28;20049;-60
2021/12/24 11:48:33;;;;;;;6.03;3.78;;;7.60;99.90;;;;;;5093764;28;20028;-61
2021/12/24 11:51:23;;;;;;;3.80;3.40;;;7.60;99.90;;;;;;5093988;28;20044;-61
2021/12/24 11:53:51;;;;;;;8.02;3.92;;;7.50;99.90;;;;;;5074872;28;20494;-61
2021/12/24 11:56:19;;;;;;;3.13;2.92;;;7.40;99.90;;;;;;5092712;28;20121;-61
2021/12/24 11:58:47;;;;;;;3.80;3.50;;;7.40;99.90;;;;;;5093009;28;20458;-61
2021/12/24 12:01:18;;;;;;;4.32;3.92;;;7.40;99.90;;;;;;5083497;28;20035;-61
2021/12/24 12:03:54;;;;;;;4.68;3.55;;;7.40;99.90;;;;;;5075108;28;20031;-61
2021/12/24 12:06:23;;;;;;;4.13;3.72;;;7.30;99.90;;;;;;5081186;28;20536;-61
2021/12/24 12:08:54;;;;;;;3.42;3.13;;;7.30;99.90;;;;;;5089116;28;20062;-61
2021/12/24 12:11:24;;;;;;;11.32;3.78;;;7.40;99.90;;;;;;5092225;28;20012;-61
2021/12/24 12:13:59;;;;;;;5.20;3.97;;;7.40;99.90;;;;;;5092346;28;20077;-61
2021/12/24 12:16:42;;;;;;;4.28;3.15;;;7.40;99.90;;;;;;5091845;28;20035;-61
2021/12/24 12:19:14;;;;;;;3.72;2.75;;;7.40;99.90;;;;;;5092368;28;20024;-60
2021/12/24 12:21:42;;;;;;;2.67;2.47;;;7.40;99.90;;;;;;5091894;28;20541;-61
2021/12/24 12:26:43;;;;;;;4.53;3.05;;;7.40;99.90;;;;;;5073011;28;20090;-61
2021/12/24 12:29:40;;;;;;;3.50;3.20;;;7.30;99.90;;;;;;5070692;28;20024;-61
2021/12/24 12:32:15;;;;;;;5.47;3.40;;;7.40;99.90;;;;;;5091683;28;20107;-60
2021/12/24 12:34:43;;;;;;;5.68;3.60;;;7.30;99.90;;;;;;5092239;28;20366;-61
2021/12/24 12:37:12;;;;;;;4.68;3.45;;;7.30;99.90;;;;;;5091753;28;20024;-61
2021/12/24 12:39:38;;;;;;;7.35;3.78;;;7.30;99.90;;;;;;5092219;28;20024;-61
2021/12/24 12:42:04;;;;;;;3.65;3.35;;;7.40;99.90;;;;;;5091979;28;20085;-61
2021/12/24 12:44:32;;;;;;;6.18;4.18;;;7.40;99.90;;;;;;5091414;28;20020;-61
2021/12/24 12:47:19;;;;;;;9.07;5.63;;;7.40;99.90;;;;;;5091339;28;20028;-61
2021/12/24 12:49:46;;;;;;;8.32;5.43;;;7.40;99.90;;;;;;5092018;28;20019;-61
2021/12/24 12:52:31;;;;;;;31.73;12.13;;;7.40;99.90;;;;;;5091469;28;20062;-61
2021/12/24 12:54:59;;;;;;;7.15;3.95;;;7.40;99.90;;;;;;5052094;28;1139505;-61
2021/12/24 12:57:32;;;;;;;3.10;2.83;;;7.30;99.90;;;;;;5092600;28;20085;-61
2021/12/24 13:00:24;;;;;;;4.00;3.00;;;7.40;99.90;;;;;;5073780;28;20032;-61
2021/12/24 13:05:41;;;;;;;3.90;3.50;;;7.40;99.90;;;;;;5092315;28;20031;-61
2021/12/24 13:08:21;;;;;;;13.02;5.47;;;7.40;99.90;;;;;;5092317;28;20020;-61
2021/12/24 13:11:04;;;;;;;3.83;3.50;;;7.40;99.90;;;;;;5092387;28;20015;-61
2021/12/24 13:13:32;;;;;;;4.07;3.50;;;7.50;99.90;;;;;;5092341;28;20016;-61
2021/12/24 13:15:58;;;;;;;3.28;2.97;;;7.50;99.90;;;;;;5091589;28;20085;-61
2021/12/24 13:18:34;;;;;;;5.40;3.85;;;7.50;99.90;;;;;;5092309;28;20073;-61
2021/12/24 13:23:30;;;;;;;49.50;15.65;;;7.50;99.90;;;;;;5091888;28;20392;-60
2021/12/24 13:25:56;;;;;;;71.50;19.42;;;7.50;99.90;;;;;;5092232;28;20039;-60
2021/12/24 13:28:21;;;;;;;4.07;3.67;;;7.50;99.90;;;;;;5092014;28;20020;-60
2021/12/24 13:30:47;;;;;;;3.58;3.00;;;7.50;99.90;;;;;;5091984;28;20675;-60
2021/12/24 13:33:13;;;;;;;5.28;3.72;;;7.60;99.90;;;;;;5091686;28;20024;-61
2021/12/24 13:35:44;;;;;;;4.05;3.65;;;7.60;99.90;;;;;;5092051;28;20047;-61
2021/12/24 13:38:14;;;;;;;4.72;3.50;;;7.60;99.90;;;;;;5081231;28;20028;-61
2021/12/24 13:40:39;;;;;;;17.33;8.32;;;7.60;99.90;;;;;;5088421;28;20494;-61
2021/12/24 13:43:07;;;;;;;3.60;3.10;;;7.60;99.90;;;;;;5091354;28;20059;-60
2021/12/24 13:45:37;;;;;;;3.53;3.22;;;7.60;99.90;;;;;;5091700;28;20406;-60
2021/12/24 13:48:18;;;;;;;3.95;3.50;;;7.50;99.90;;;;;;5091789;28;20020;-61
2021/12/24 13:56:00;;;;;;;15.73;4.30;;;7.50;99.90;;;;;;5090377;28;20094;-60
2021/12/24 13:58:26;;;;;;;5.55;3.78;;;7.50;99.90;;;;;;5090093;28;20044;-61
2021/12/24 14:00:55;;;;;;;3.85;3.45;;;7.50;99.90;;;;;;5086702;28;20103;-61
2021/12/24 14:03:31;;;;;;;3.63;3.13;;;7.40;99.90;;;;;;5090313;28;20115;-61
2021/12/24 14:06:01;;;;;;;5.55;3.58;;;7.50;99.90;;;;;;5090403;28;20032;-60
2021/12/24 14:08:29;;;;;;;4.38;3.55;;;7.40;99.90;;;;;;5089765;28;20024;-61
2021/12/24 14:11:13;;;;;;;3.75;3.45;;;7.40;99.90;;;;;;5090021;28;20355;-61
2021/12/24 14:13:49;;;;;;;5.30;4.80;;;7.40;99.90;;;;;;5090002;28;20020;-61
2021/12/24 14:19:08;;;;;;;8.35;4.80;;;7.30;99.90;;;;;;5090283;28;20024;-61
2021/12/24 14:24:04;;;;;;;6.32;4.53;;;7.30;99.90;;;;;;5090208;28;20032;-61
2021/12/24 14:26:34;;;;;;;15.93;3.90;;;7.20;99.90;;;;;;5090065;28;20522;-60
2021/12/24 14:29:05;;;;;;;5.60;4.25;;;7.20;99.90;;;;;;5090162;28;20024;-61
2021/12/24 14:32:06;;;;;;;9.93;4.72;;;7.20;99.90;;;;;;5089871;28;20483;-60
2021/12/24 14:34:39;;;;;;;6.22;4.70;;;7.20;99.90;;;;;;4990999;28;20627;-61
2021/12/24 14:37:09;;;;;;;8.00;4.75;;;7.10;99.90;;;;;;5076630;28;20508;-61
2021/12/24 14:39:44;;;;;;;7.55;5.05;;;7.20;99.90;;;;;;5074064;28;20025;-61
2021/12/24 14:42:15;;;;;;;8.00;6.18;;;7.10;99.90;;;;;;5070885;28;20013;-60
2021/12/24 14:44:42;;;;;;;7.78;5.78;;;7.20;99.90;;;;;;5071131;28;20435;-61
2021/12/24 14:47:10;;;;;;;8.23;6.60;;;7.20;99.90;;;;;;5089635;28;20024;-60
2021/12/24 14:49:39;;;;;;;7.60;3.90;;;7.20;99.90;;;;;;5069294;28;20090;-61
2021/12/24 14:52:25;;;;;;;5.53;4.72;;;7.20;99.90;;;;;;5078335;28;20100;-61
2021/12/24 14:55:08;;;;;;;9.57;5.70;;;7.20;99.90;;;;;;5084907;28;20055;-61
2021/12/24 14:57:43;;;;;;;7.43;5.25;;;7.20;99.90;;;;;;5090726;28;20027;-61
2021/12/24 15:00:13;;;;;;;7.63;5.43;;;7.20;99.90;;;;;;5091014;28;20035;-61